createdAt,value
2022-11-05T00:00:19.371Z,48.05
2022-11-05T00:03:04.750Z,47.95
2022-11-05T00:05:50.572Z,48.02
2022-11-05T00:08:35.839Z,47.52
2022-11-05T00:11:02.438Z,47.75
2022-11-05T00:13:47.390Z,47.37
2022-11-05T00:16:32.258Z,47.49
2022-11-05T00:19:07.913Z,47.61
2022-11-05T00:21:54.507Z,47.40
2022-11-05T00:24:40.473Z,47.58
2022-11-05T00:27:07.956Z,47.92
2022-11-05T00:29:34.742Z,47.91
2022-11-05T00:32:01.747Z,47.90
2022-11-05T00:34:28.357Z,47.55
2022-11-05T00:36:55.615Z,47.84
2022-11-05T00:39:22.163Z,48.02
2022-11-05T00:42:08.655Z,47.35
2022-11-05T00:44:53.617Z,47.34
2022-11-05T00:47:40.430Z,47.15
2022-11-05T00:50:07.368Z,47.94
2022-11-05T00:53:09.728Z,47.30
2022-11-05T00:55:42.536Z,47.75
2022-11-05T00:58:14.421Z,47.70
2022-11-05T01:00:48.086Z,47.61
2022-11-05T01:03:16.706Z,47.87
2022-11-05T01:05:45.721Z,47.87
2022-11-05T01:08:13.641Z,47.96
2022-11-05T01:10:45.335Z,47.93
2022-11-05T01:13:14.334Z,47.49
2022-11-05T01:15:41.956Z,47.74
2022-11-05T01:18:08.613Z,47.19
2022-11-05T01:20:35.195Z,47.56
2022-11-05T01:23:01.759Z,47.83
2022-11-05T01:25:28.381Z,47.33
2022-11-05T01:27:55.075Z,47.57
2022-11-05T01:30:22.157Z,47.94
2022-11-05T01:32:48.998Z,47.49
2022-11-05T01:35:17.586Z,48.07
2022-11-05T01:37:44.859Z,47.58
2022-11-05T01:40:17.994Z,47.45
2022-11-05T01:42:45.485Z,47.46
2022-11-05T01:45:26.563Z,47.80
2022-11-05T01:48:25.437Z,47.66
2022-11-05T01:51:11.870Z,48.20
2022-11-05T01:53:47.960Z,47.53
2022-11-05T01:56:29.417Z,47.61
2022-11-05T01:59:02.138Z,48.41
2022-11-05T02:01:29.556Z,48.11
2022-11-05T02:03:59.972Z,47.96
2022-11-05T02:06:29.022Z,48.05
2022-11-05T02:09:17.992Z,47.87
2022-11-05T02:11:44.561Z,48.13
2022-11-05T02:14:11.089Z,48.44
2022-11-05T02:16:49.583Z,48.12
2022-11-05T02:20:12.764Z,48.24
2022-11-05T02:23:11.906Z,48.26
2022-11-05T02:25:44.545Z,47.16
2022-11-05T02:28:48.256Z,46.72
2022-11-05T02:31:53.451Z,46.78
2022-11-05T02:34:33.606Z,46.47
2022-11-05T02:37:37.977Z,46.86
2022-11-05T02:40:26.146Z,46.73
2022-11-05T02:43:31.203Z,46.71
2022-11-05T02:46:26.838Z,46.21
2022-11-05T02:49:13.504Z,45.99
2022-11-05T02:51:51.478Z,45.66
2022-11-05T02:54:26.892Z,45.63
2022-11-05T02:56:55.530Z,46.13
2022-11-05T02:59:22.101Z,46.08
2022-11-05T03:01:49.692Z,45.97
2022-11-05T03:04:19.508Z,46.05
2022-11-05T03:07:05.646Z,45.83
2022-11-05T03:09:44.230Z,45.59
2022-11-05T03:12:19.844Z,45.67
2022-11-05T03:15:26.670Z,45.74
2022-11-05T03:18:24.778Z,45.48
2022-11-05T03:20:57.202Z,45.16
2022-11-05T03:23:51.670Z,45.45
2022-11-05T03:26:22.264Z,45.40
2022-11-05T03:28:55.798Z,45.34
2022-11-05T03:31:24.884Z,45.20
2022-11-05T03:33:54.918Z,45.28
2022-11-05T03:36:30.929Z,45.25
2022-11-05T03:39:02.836Z,44.87
2022-11-05T03:41:29.665Z,45.06
2022-11-05T03:44:01.482Z,44.98
2022-11-05T03:46:32.817Z,45.29
2022-11-05T03:49:04.312Z,44.95
2022-11-05T03:51:46.029Z,44.91
2022-11-05T03:54:13.529Z,45.06
2022-11-05T03:57:07.104Z,45.15
2022-11-05T03:59:43.878Z,44.77
2022-11-05T04:02:11.973Z,44.89
2022-11-05T04:04:39.350Z,44.71
2022-11-05T04:07:24.387Z,44.65
2022-11-05T04:10:09.718Z,44.57
2022-11-05T04:12:55.144Z,44.98
2022-11-05T04:15:21.855Z,45.18
2022-11-05T04:17:48.390Z,45.45
2022-11-05T04:20:33.572Z,45.54
2022-11-05T04:23:20.887Z,45.98
2022-11-05T04:25:47.476Z,46.12
2022-11-05T04:28:14.590Z,46.18
2022-11-05T04:30:41.729Z,46.17
2022-11-05T04:33:15.631Z,46.43
2022-11-05T04:35:49.047Z,46.76
2022-11-05T04:38:18.879Z,46.61
2022-11-05T04:40:47.541Z,46.85
2022-11-05T04:43:16.795Z,46.90
2022-11-05T04:45:44.026Z,46.25
2022-11-05T04:48:10.976Z,46.97
2022-11-05T04:50:37.508Z,46.38
2022-11-05T04:53:04.042Z,46.95
2022-11-05T04:55:31.228Z,46.52
2022-11-05T04:57:57.796Z,46.20
2022-11-05T05:00:24.515Z,46.18
2022-11-05T05:02:51.069Z,46.21
2022-11-05T05:05:17.743Z,46.85
2022-11-05T05:07:44.491Z,46.69
2022-11-05T05:10:11.774Z,46.90
2022-11-05T05:12:38.566Z,46.17
2022-11-05T05:15:05.748Z,46.55
2022-11-05T05:17:32.351Z,46.49
2022-11-05T05:20:17.794Z,46.73
2022-11-05T05:22:44.336Z,46.81
2022-11-05T05:25:10.879Z,46.99
2022-11-05T05:27:37.426Z,47.13
2022-11-05T05:30:04.329Z,46.61
2022-11-05T05:32:30.938Z,46.57
2022-11-05T05:34:57.511Z,47.17
2022-11-05T05:37:24.134Z,46.80
2022-11-05T05:39:50.661Z,46.37
2022-11-05T05:42:17.253Z,47.11
2022-11-05T05:44:43.885Z,46.85
2022-11-05T05:47:10.489Z,46.88
2022-11-05T05:49:37.116Z,47.18
2022-11-05T05:52:03.853Z,46.68
2022-11-05T05:54:32.841Z,46.75
2022-11-05T05:57:01.701Z,46.46
2022-11-05T05:59:28.260Z,46.56
2022-11-05T06:01:54.936Z,46.78
2022-11-05T06:04:21.695Z,47.09
2022-11-05T06:06:48.269Z,46.80
2022-11-05T06:09:15.190Z,47.29
2022-11-05T06:11:42.218Z,46.98
2022-11-05T06:14:14.723Z,47.30
2022-11-05T06:16:41.303Z,47.20
2022-11-05T06:19:08.253Z,47.44
2022-11-05T06:21:35.269Z,46.79
2022-11-05T06:24:02.870Z,47.03
2022-11-05T06:26:29.939Z,46.96
2022-11-05T06:28:56.984Z,46.84
2022-11-05T06:31:23.730Z,47.22
2022-11-05T06:33:50.299Z,47.03
2022-11-05T06:36:19.089Z,46.75
2022-11-05T06:38:45.930Z,47.03
2022-11-05T06:41:12.493Z,47.45
2022-11-05T06:43:39.144Z,47.25
2022-11-05T06:46:06.136Z,46.99
2022-11-05T06:48:33.066Z,47.34
2022-11-05T06:50:59.648Z,46.60
2022-11-05T06:53:26.559Z,46.96
2022-11-05T06:55:53.192Z,46.63
2022-11-05T06:58:19.753Z,47.34
2022-11-05T07:00:46.613Z,47.22
2022-11-05T07:03:14.022Z,46.62
2022-11-05T07:05:45.432Z,46.80
2022-11-05T07:08:12.097Z,47.24
2022-11-05T07:10:38.684Z,47.37
2022-11-05T07:13:08.430Z,46.84
2022-11-05T07:15:36.579Z,47.38
2022-11-05T07:18:04.094Z,47.19
2022-11-05T07:20:33.879Z,47.39
2022-11-05T07:23:09.960Z,46.33
2022-11-05T07:25:36.700Z,47.14
2022-11-05T07:28:04.085Z,46.44
2022-11-05T07:30:31.818Z,46.98
2022-11-05T07:32:58.438Z,47.12
2022-11-05T07:35:25.822Z,47.10
2022-11-05T07:37:54.116Z,47.06
2022-11-05T07:40:22.002Z,46.78
2022-11-05T07:42:51.318Z,46.41
2022-11-05T07:45:18.560Z,46.79
2022-11-05T07:47:50.505Z,46.67
2022-11-05T07:50:19.118Z,45.90
2022-11-05T07:52:46.112Z,45.70
2022-11-05T07:55:13.288Z,45.83
2022-11-05T07:57:47.903Z,45.80
2022-11-05T08:00:18.181Z,44.53
2022-11-05T08:02:44.957Z,43.87
2022-11-05T08:05:11.748Z,44.39
2022-11-05T08:07:38.332Z,43.80
2022-11-05T08:10:05.197Z,44.42
2022-11-05T08:12:32.278Z,44.36
2022-11-05T08:14:58.930Z,43.91
2022-11-05T08:17:25.739Z,43.68
2022-11-05T08:19:52.341Z,43.04
2022-11-05T08:22:18.878Z,42.72
2022-11-05T08:24:45.415Z,42.79
2022-11-05T08:27:11.988Z,44.11
2022-11-05T08:29:38.562Z,44.72
2022-11-05T08:32:05.138Z,45.32
2022-11-05T08:34:31.692Z,45.48
2022-11-05T08:37:00.894Z,45.55
2022-11-05T08:39:27.573Z,45.85
2022-11-05T08:41:54.121Z,46.08
2022-11-05T08:44:20.664Z,45.43
2022-11-05T08:46:47.229Z,45.32
2022-11-05T08:49:14.158Z,45.40
2022-11-05T08:51:40.701Z,45.97
2022-11-05T08:54:07.463Z,46.29
2022-11-05T08:56:34.046Z,45.59
2022-11-05T08:59:01.080Z,45.17
2022-11-05T09:01:27.714Z,44.68
2022-11-05T09:03:54.397Z,45.39
2022-11-05T09:06:20.994Z,45.72
2022-11-05T09:08:47.560Z,45.58
2022-11-05T09:11:14.083Z,45.62
2022-11-05T09:13:40.702Z,46.48
2022-11-05T09:16:22.634Z,46.54
2022-11-05T09:18:50.175Z,46.31
2022-11-05T09:21:17.893Z,46.02
2022-11-05T09:23:45.439Z,45.43
2022-11-05T09:26:13.497Z,45.36
2022-11-05T09:28:40.913Z,44.90
2022-11-05T09:31:09.001Z,44.67
2022-11-05T09:33:37.667Z,44.37
2022-11-05T09:36:05.076Z,44.89
2022-11-05T09:38:35.118Z,44.32
2022-11-05T09:41:14.164Z,43.43
2022-11-05T09:43:44.488Z,42.35
2022-11-05T09:46:17.875Z,41.36
2022-11-05T09:48:48.407Z,41.40
2022-11-05T09:51:22.418Z,41.49
2022-11-05T09:53:50.758Z,42.34
2022-11-05T09:56:26.193Z,43.30
2022-11-05T09:59:03.012Z,44.18
2022-11-05T10:01:33.434Z,44.26
2022-11-05T10:04:05.963Z,44.42
2022-11-05T10:06:32.657Z,43.74
2022-11-05T10:09:12.200Z,42.95
2022-11-05T10:11:48.071Z,43.95
2022-11-05T10:14:22.505Z,43.55
2022-11-05T10:16:57.787Z,42.00
2022-11-05T10:19:28.327Z,41.72
2022-11-05T10:22:09.022Z,40.86
2022-11-05T10:24:35.742Z,39.89
2022-11-05T10:27:03.238Z,40.40
2022-11-05T10:29:33.185Z,42.49
2022-11-05T10:32:03.461Z,43.51
2022-11-05T10:34:33.748Z,45.21
2022-11-05T10:37:00.821Z,45.50
2022-11-05T10:39:35.232Z,45.47
2022-11-05T10:42:19.483Z,46.04
2022-11-05T10:45:07.655Z,46.04
2022-11-05T10:48:40.732Z,45.53
2022-11-05T10:51:10.537Z,44.76
2022-11-05T10:53:41.076Z,45.06
2022-11-05T10:56:34.623Z,44.92
2022-11-05T10:59:06.663Z,45.68
2022-11-05T11:01:36.584Z,45.78
2022-11-05T11:04:12.032Z,45.24
2022-11-05T11:06:47.923Z,45.68
2022-11-05T11:09:31.871Z,45.53
2022-11-05T11:12:15.472Z,45.51
2022-11-05T11:14:42.499Z,45.54
2022-11-05T11:17:27.610Z,45.83
2022-11-05T11:20:31.721Z,45.40
2022-11-05T11:23:10.146Z,46.21
2022-11-05T11:26:01.740Z,46.12
2022-11-05T11:28:36.008Z,46.23
2022-11-05T11:31:15.646Z,45.92
2022-11-05T11:33:47.115Z,46.59
2022-11-05T11:36:17.081Z,45.24
2022-11-05T11:38:44.056Z,46.08
2022-11-05T11:41:27.909Z,45.95
2022-11-05T11:44:02.143Z,45.79
2022-11-05T11:46:32.864Z,46.42
2022-11-05T11:49:00.660Z,45.85
2022-11-05T11:51:35.144Z,46.61
2022-11-05T11:54:02.841Z,46.17
2022-11-05T11:56:32.426Z,46.36
2022-11-05T11:59:11.436Z,46.04
2022-11-05T12:02:06.029Z,46.40
2022-11-05T12:04:41.671Z,46.13
2022-11-05T12:07:29.458Z,45.32
2022-11-05T12:10:21.669Z,46.36
2022-11-05T12:12:57.371Z,46.74
2022-11-05T12:15:41.957Z,45.59
2022-11-05T12:18:26.141Z,45.83
2022-11-05T12:21:34.654Z,45.41
2022-11-05T12:24:36.136Z,44.28
2022-11-05T12:27:31.885Z,44.16
2022-11-05T12:30:08.170Z,44.98
2022-11-05T12:33:12.156Z,44.12
2022-11-05T12:36:06.412Z,44.14
2022-11-05T12:38:59.106Z,44.15
2022-11-05T12:41:46.029Z,43.77
2022-11-05T12:44:53.727Z,44.91
2022-11-05T12:47:40.183Z,45.43
2022-11-05T12:50:18.798Z,45.42
2022-11-05T12:53:01.538Z,45.50
2022-11-05T12:55:36.909Z,44.92
2022-11-05T12:58:32.687Z,44.80
2022-11-05T13:01:05.420Z,45.15
2022-11-05T13:03:40.669Z,45.31
2022-11-05T13:06:13.436Z,45.44
2022-11-05T13:08:46.859Z,44.67
2022-11-05T13:11:28.523Z,45.17
2022-11-05T13:14:08.968Z,44.54
2022-11-05T13:16:40.362Z,45.12
2022-11-05T13:19:43.761Z,44.33
2022-11-05T13:22:29.018Z,44.71
2022-11-05T13:25:00.982Z,45.00
2022-11-05T13:27:39.210Z,44.86
2022-11-05T13:30:09.381Z,44.85
2022-11-05T13:32:39.283Z,44.79
2022-11-05T13:35:24.548Z,44.64
2022-11-05T13:38:17.911Z,44.79
2022-11-05T13:41:03.334Z,45.15
2022-11-05T13:43:51.686Z,46.00
2022-11-05T13:46:18.206Z,45.08
2022-11-05T13:48:53.748Z,45.53
2022-11-05T13:51:23.323Z,44.28
2022-11-05T13:54:11.156Z,44.30
2022-11-05T13:57:07.661Z,43.58
2022-11-05T13:59:46.427Z,42.80
2022-11-05T14:02:24.228Z,43.19
2022-11-05T14:05:00.556Z,42.78
2022-11-05T14:07:37.623Z,42.82
2022-11-05T14:10:25.169Z,43.72
2022-11-05T14:12:54.632Z,43.87
2022-11-05T14:15:28.159Z,45.03
2022-11-05T14:18:07.420Z,44.90
2022-11-05T14:20:34.093Z,44.31
2022-11-05T14:23:19.016Z,44.25
2022-11-05T14:25:45.504Z,43.60
2022-11-05T14:29:10.689Z,44.27
2022-11-05T14:32:09.167Z,43.60
2022-11-05T14:35:03.919Z,43.95
2022-11-05T14:37:33.898Z,44.63
2022-11-05T14:40:43.470Z,44.35
2022-11-05T14:43:26.520Z,45.48
2022-11-05T14:46:02.860Z,45.44
2022-11-05T14:48:44.697Z,45.39
2022-11-05T14:51:36.033Z,45.96
2022-11-05T14:54:08.522Z,45.50
2022-11-05T14:56:57.566Z,45.77
2022-11-05T14:59:24.076Z,45.92
2022-11-05T15:01:58.074Z,46.26
2022-11-05T15:04:31.901Z,45.74
2022-11-05T15:07:04.441Z,46.02
2022-11-05T15:09:36.679Z,46.40
2022-11-05T15:12:19.815Z,45.79
2022-11-05T15:15:02.060Z,46.15
2022-11-05T15:17:38.742Z,45.64
2022-11-05T15:20:14.340Z,45.88
2022-11-05T15:22:44.553Z,45.71
2022-11-05T15:25:33.616Z,45.50
2022-11-05T15:28:38.619Z,45.56
2022-11-05T15:31:22.774Z,45.68
2022-11-05T15:33:49.304Z,45.40
2022-11-05T15:36:30.661Z,45.57
2022-11-05T15:39:27.511Z,45.90
2022-11-05T15:41:44.974Z,46.00
2022-11-05T15:44:26.076Z,45.59
2022-11-05T15:47:30.766Z,46.07
2022-11-05T15:50:03.942Z,46.08
2022-11-05T15:52:37.154Z,45.66
2022-11-05T15:55:25.422Z,45.89
2022-11-05T15:57:59.504Z,45.84
2022-11-05T16:00:28.276Z,45.84
2022-11-05T16:03:07.528Z,46.00
2022-11-05T16:05:41.860Z,46.01
2022-11-05T16:08:18.966Z,46.47
2022-11-05T16:11:00.356Z,46.18
2022-11-05T16:13:39.931Z,46.64
2022-11-05T16:16:24.460Z,46.68
2022-11-05T16:18:51.434Z,46.20
2022-11-05T16:21:22.671Z,46.31
2022-11-05T16:23:49.212Z,46.30
2022-11-05T16:27:01.956Z,46.84
2022-11-05T16:29:39.019Z,46.95
2022-11-05T16:32:30.626Z,46.43
2022-11-05T16:35:01.435Z,46.73
2022-11-05T16:37:35.468Z,46.26
2022-11-05T16:40:03.636Z,46.68
2022-11-05T16:42:33.207Z,46.39
2022-11-05T16:44:59.778Z,46.85
2022-11-05T16:47:26.511Z,46.72
2022-11-05T16:49:53.296Z,46.74
2022-11-05T16:52:19.825Z,46.43
2022-11-05T16:54:46.496Z,46.89
2022-11-05T16:57:30.999Z,46.37
2022-11-05T16:59:59.845Z,46.80
2022-11-05T17:02:27.449Z,46.54
2022-11-05T17:04:54.086Z,46.59
2022-11-05T17:07:20.621Z,46.50
2022-11-05T17:09:47.415Z,46.92
2022-11-05T17:12:14.370Z,46.65
2022-11-05T17:14:41.279Z,46.74
2022-11-05T17:17:07.920Z,47.12
2022-11-05T17:19:34.812Z,46.77
2022-11-05T17:22:01.348Z,46.80
2022-11-05T17:24:28.010Z,46.83
2022-11-05T17:26:54.711Z,47.11
2022-11-05T17:29:21.475Z,47.28
2022-11-05T17:31:48.978Z,46.52
2022-11-05T17:34:15.554Z,46.42
2022-11-05T17:36:42.090Z,46.79
2022-11-05T17:39:08.648Z,46.45
2022-11-05T17:41:35.180Z,46.61
2022-11-05T17:44:01.733Z,47.29
2022-11-05T17:46:28.254Z,46.51
2022-11-05T17:48:55.156Z,46.75
2022-11-05T17:51:22.041Z,47.25
2022-11-05T17:53:51.672Z,46.79
2022-11-05T17:56:30.520Z,47.57
2022-11-05T17:59:01.487Z,47.26
2022-11-05T18:01:31.722Z,47.44
2022-11-05T18:04:01.269Z,47.08
2022-11-05T18:06:30.684Z,47.04
2022-11-05T18:08:57.292Z,47.07
2022-11-05T18:11:23.829Z,46.65
2022-11-05T18:13:50.478Z,47.17
2022-11-05T18:16:17.144Z,46.66
2022-11-05T18:18:43.730Z,46.83
2022-11-05T18:21:10.258Z,47.44
2022-11-05T18:23:36.843Z,47.02
2022-11-05T18:26:11.464Z,46.81
2022-11-05T18:28:38.106Z,47.03
2022-11-05T18:31:08.287Z,47.43
2022-11-05T18:33:34.983Z,46.85
2022-11-05T18:36:01.521Z,47.37
2022-11-05T18:38:28.071Z,47.29
2022-11-05T18:40:54.633Z,46.82
2022-11-05T18:43:21.173Z,46.82
2022-11-05T18:45:55.690Z,47.24
2022-11-05T18:48:22.250Z,47.02
2022-11-05T18:50:49.593Z,47.17
2022-11-05T18:53:16.304Z,47.39
2022-11-05T18:55:44.054Z,47.16
2022-11-05T18:58:10.878Z,47.32
2022-11-05T19:00:41.120Z,47.14
2022-11-05T19:03:07.863Z,46.64
2022-11-05T19:05:34.690Z,47.11
2022-11-05T19:08:01.201Z,47.00
2022-11-05T19:10:28.032Z,46.91
2022-11-05T19:12:54.742Z,47.50
2022-11-05T19:15:21.282Z,46.61
2022-11-05T19:17:47.931Z,46.96
2022-11-05T19:20:14.573Z,47.40
2022-11-05T19:22:41.098Z,47.40
2022-11-05T19:25:08.040Z,47.52
2022-11-05T19:27:35.441Z,47.34
2022-11-05T19:30:02.412Z,46.84
2022-11-05T19:32:29.265Z,46.77
2022-11-05T19:34:55.828Z,47.11
2022-11-05T19:37:22.491Z,46.64
2022-11-05T19:39:49.029Z,47.27
2022-11-05T19:42:15.557Z,46.89
2022-11-05T19:44:43.087Z,46.86
2022-11-05T19:47:09.891Z,47.25
2022-11-05T19:49:36.445Z,46.77
2022-11-05T19:52:02.981Z,47.44
2022-11-05T19:54:29.629Z,46.85
2022-11-05T19:56:56.229Z,47.33
2022-11-05T19:59:22.789Z,47.04
2022-11-05T20:01:49.451Z,47.22
2022-11-05T20:04:16.101Z,46.66
2022-11-05T20:06:42.634Z,47.47
2022-11-05T20:09:27.401Z,47.43
2022-11-05T20:11:56.283Z,46.94
2022-11-05T20:14:24.407Z,47.14
2022-11-05T20:16:50.939Z,47.30
2022-11-05T20:19:19.403Z,46.79
2022-11-05T20:21:46.152Z,47.28
2022-11-05T20:24:20.326Z,47.47
2022-11-05T20:26:50.100Z,47.39
2022-11-05T20:29:16.668Z,46.87
2022-11-05T20:31:43.184Z,47.11
2022-11-05T20:34:10.474Z,46.68
2022-11-05T20:36:37.028Z,46.51
2022-11-05T20:39:03.920Z,47.39
2022-11-05T20:41:31.482Z,46.85
2022-11-05T20:43:59.184Z,47.54
2022-11-05T20:46:25.887Z,47.40
2022-11-05T20:48:53.912Z,46.76
2022-11-05T20:51:22.827Z,47.40
2022-11-05T20:53:49.367Z,46.82
2022-11-05T20:56:22.670Z,46.65
2022-11-05T20:58:50.041Z,46.79
2022-11-05T21:01:17.415Z,46.60
2022-11-05T21:03:45.232Z,47.02
2022-11-05T21:06:12.512Z,46.72
2022-11-05T21:08:39.374Z,47.39
2022-11-05T21:11:07.189Z,46.90
2022-11-05T21:13:34.485Z,46.91
2022-11-05T21:16:01.496Z,47.17
2022-11-05T21:18:31.325Z,47.22
2022-11-05T21:21:00.391Z,47.30
2022-11-05T21:23:28.452Z,46.96
2022-11-05T21:25:55.400Z,46.86
2022-11-05T21:28:22.101Z,46.86
2022-11-05T21:30:49.154Z,46.76
2022-11-05T21:33:18.122Z,46.72
2022-11-05T21:35:47.147Z,47.23
2022-11-05T21:38:16.087Z,47.24
2022-11-05T21:40:43.266Z,47.52
2022-11-05T21:43:09.817Z,47.09
2022-11-05T21:45:41.061Z,46.81
2022-11-05T21:48:09.026Z,46.99
2022-11-05T21:50:57.116Z,47.09
2022-11-05T21:53:42.332Z,47.34
2022-11-05T21:56:48.078Z,46.84
2022-11-05T21:59:36.353Z,47.02
2022-11-05T22:02:04.227Z,46.73
2022-11-05T22:04:32.652Z,47.29
2022-11-05T22:06:59.667Z,47.11
2022-11-05T22:09:26.674Z,47.16
2022-11-05T22:11:53.860Z,47.27
2022-11-05T22:14:20.433Z,46.59
2022-11-05T22:16:47.152Z,46.95
2022-11-05T22:19:13.690Z,47.06
2022-11-05T22:21:40.256Z,46.97
2022-11-05T22:24:07.292Z,46.64
2022-11-05T22:26:34.550Z,47.09
2022-11-05T22:29:01.085Z,46.92
2022-11-05T22:31:33.125Z,46.88
2022-11-05T22:34:02.836Z,46.74
2022-11-05T22:36:29.363Z,46.77
2022-11-05T22:38:55.900Z,47.12
2022-11-05T22:41:22.644Z,46.57
2022-11-05T22:43:49.346Z,46.56
2022-11-05T22:46:21.490Z,46.41
2022-11-05T22:48:49.397Z,47.03
2022-11-05T22:51:21.345Z,46.71
2022-11-05T22:53:48.432Z,47.17
2022-11-05T22:56:17.541Z,46.95
2022-11-05T22:58:44.151Z,46.58
2022-11-05T23:01:11.871Z,46.66
2022-11-05T23:03:40.667Z,46.93
2022-11-05T23:06:38.245Z,46.92
2022-11-05T23:09:26.093Z,46.30
2022-11-05T23:11:53.860Z,46.68
2022-11-05T23:14:20.748Z,46.97
2022-11-05T23:17:06.084Z,46.54
2022-11-05T23:19:51.326Z,47.14
2022-11-05T23:22:43.981Z,46.79
2022-11-05T23:25:19.510Z,46.56
2022-11-05T23:27:52.052Z,46.78
2022-11-05T23:30:21.652Z,46.86
2022-11-05T23:32:48.473Z,46.71
2022-11-05T23:35:15.262Z,46.70
2022-11-05T23:38:02.288Z,47.08
2022-11-05T23:40:30.941Z,47.20
2022-11-05T23:43:16.619Z,47.17
2022-11-05T23:46:02.815Z,46.90
2022-11-05T23:48:35.578Z,47.20
2022-11-05T23:51:07.435Z,46.53
2022-11-05T23:53:37.320Z,46.95
2022-11-05T23:56:14.985Z,46.55
2022-11-05T23:58:42.508Z,47.12
